Time;durP1;ratioP1;P1;durP2;ratioP2;P2;SDS_P1;SDS_P2;PMS_P1;PMS_P2;Temp;Humidity;BMP_temperature;BMP_pressure;BME280_temperature;BME280_humidity;BME280_pressure;Samples;Min_cycle;Max_cycle;Signal;HPM_P1;HPM_P2
2022/08/03 00:01:58;;;;;;;5.45;2.20;;;;;;;;;;5008153;28;20045;-75
2022/08/03 00:04:24;;;;;;;7.82;2.28;;;20.10;99.90;;;;;;5004576;28;20115;-75
2022/08/03 00:06:50;;;;;;;4.93;1.90;;;;;;;;;;5010634;28;20510;-74
2022/08/03 00:09:16;;;;;;;7.75;1.77;;;;;;;;;;5003879;28;20477;-73
2022/08/03 00:11:42;;;;;;;5.68;1.55;;;;;;;;;;5004842;28;20073;-73
2022/08/03 00:14:08;;;;;;;9.23;2.20;;;;;;;;;;5006514;28;20493;-73
2022/08/03 00:16:34;;;;;;;7.55;1.67;;;;;;;;;;5005227;28;20034;-73
2022/08/03 00:19:01;;;;;;;9.98;1.85;;;;;;;;;;5006983;28;20026;-73
2022/08/03 00:21:27;;;;;;;8.18;2.55;;;;;;;;;;5008867;28;20091;-73
2022/08/03 00:23:53;;;;;;;7.93;2.35;;;;;;;;;;5008002;28;20026;-73
2022/08/03 00:26:20;;;;;;;8.52;2.28;;;;;;;;;;5003769;28;20585;-73
2022/08/03 00:28:46;;;;;;;6.32;1.95;;;;;;;;;;5009113;28;20034;-73
2022/08/03 00:31:12;;;;;;;6.25;2.30;;;;;;;;;;5009236;28;20076;-73
2022/08/03 00:33:38;;;;;;;14.38;2.75;;;;;;;;;;5004729;28;20042;-73
2022/08/03 00:36:04;;;;;;;13.57;2.30;;;;;;;;;;5021694;28;20037;-73
2022/08/03 00:38:29;;;;;;;7.57;1.60;;;20.00;99.90;;;;;;5010978;28;20123;-73
2022/08/03 00:40:55;;;;;;;9.48;1.98;;;;;;;;;;5007613;28;20646;-73
2022/08/03 00:43:24;;;;;;;7.32;1.90;;;19.70;99.90;;;;;;5000236;28;20037;-73
2022/08/03 00:45:50;;;;;;;5.72;1.40;;;;;;;;;;4993707;28;20034;-74
2022/08/03 00:48:16;;;;;;;7.75;1.85;;;;;;;;;;5009589;28;20038;-73
2022/08/03 00:50:43;;;;;;;7.20;1.85;;;;;;;;;;5007461;28;20022;-73
2022/08/03 00:53:12;;;;;;;7.18;1.95;;;19.80;99.90;;;;;;5009104;28;20045;-74
2022/08/03 00:55:38;;;;;;;8.48;1.98;;;;;;;;;;5003839;28;20038;-74
2022/08/03 00:58:05;;;;;;;6.07;1.80;;;;;;;;;;5005497;28;20045;-74
2022/08/03 01:00:32;;;;;;;12.45;2.08;;;;;;;;;;5006958;28;20036;-74
2022/08/03 01:02:57;;;;;;;5.72;1.63;;;19.60;99.90;;;;;;5014620;28;20126;-74
2022/08/03 01:05:23;;;;;;;8.60;1.60;;;;;;;;;;5007603;28;20113;-74
2022/08/03 01:08:05;;;;;;;12.80;1.63;;;;;;;;;;4999003;28;20041;-74
2022/08/03 01:10:34;;;;;;;10.27;1.67;;;;;;;;;;5001210;28;20034;-74
2022/08/03 01:13:12;;;;;;;11.10;2.25;;;;;;;;;;5015320;28;20033;-74
2022/08/03 01:15:43;;;;;;;7.80;1.50;;;;;;;;;;5009424;28;20034;-74
2022/08/03 01:18:24;;;;;;;6.97;1.65;;;19.30;99.90;;;;;;5012935;28;20037;-74
2022/08/03 01:20:55;;;;;;;9.70;2.83;;;;;;;;;;5012730;28;20463;-74
2022/08/03 01:23:35;;;;;;;7.93;1.77;;;;;;;;;;5010602;28;20054;-74
2022/08/03 01:26:19;;;;;;;8.57;1.92;;;;;;;;;;4995525;28;20036;-73
2022/08/03 01:28:54;;;;;;;7.15;1.40;;;;;;;;;;5008055;28;20037;-74
2022/08/03 01:31:26;;;;;;;8.15;2.28;;;19.40;99.90;;;;;;5013665;28;20548;-75
2022/08/03 01:33:55;;;;;;;;;;;19.10;99.90;;;;;;5006964;28;20161;-74
2022/08/03 01:36:26;;;;;;;11.35;2.15;;;;;;;;;;5007607;28;19914;-76
2022/08/03 01:38:54;;;;;;;6.20;1.73;;;;;;;;;;5012541;28;20030;-75
2022/08/03 01:41:31;;;;;;;7.10;1.65;;;;;;;;;;5008263;28;20036;-73
2022/08/03 01:44:00;;;;;;;12.20;2.03;;;19.20;99.90;;;;;;5004869;28;20576;-73
2022/08/03 01:46:27;;;;;;;10.45;1.83;;;;;;;;;;5010108;28;20034;-76
2022/08/03 01:48:54;;;;;;;8.75;2.78;;;19.50;99.90;;;;;;5011210;28;20021;-76
2022/08/03 01:51:21;;;;;;;8.20;1.95;;;;;;;;;;5011568;28;20048;-73
2022/08/03 01:53:49;;;;;;;8.73;1.65;;;19.30;99.90;;;;;;5005490;28;20064;-72
2022/08/03 01:56:17;;;;;;;7.28;1.98;;;;;;;;;;5013408;28;20374;-72
2022/08/03 01:58:44;;;;;;;9.68;1.80;;;;;;;;;;5013186;28;20149;-72
2022/08/03 02:01:12;;;;;;;9.20;1.98;;;;;;;;;;4997942;28;20101;-72
2022/08/03 02:03:40;;;;;;;10.68;3.03;;;19.20;99.90;;;;;;5011802;28;20041;-73
2022/08/03 02:06:11;;;;;;;6.25;1.92;;;19.20;99.90;;;;;;5006050;28;20038;-75
2022/08/03 02:08:41;;;;;;;9.73;1.50;;;;;;;;;;5009860;28;20041;-73
2022/08/03 02:11:07;;;;;;;12.32;1.83;;;;;;;;;;5013447;28;20022;-74
2022/08/03 02:13:35;;;;;;;16.25;2.35;;;;;;;;;;5011176;28;20516;-74
2022/08/03 02:16:02;;;;;;;12.10;2.90;;;;;;;;;;5005809;28;20121;-73
2022/08/03 02:18:29;;;;;;;10.85;1.95;;;;;;;;;;5012816;28;20448;-74
2022/08/03 02:20:55;;;;;;;7.10;1.50;;;;;;;;;;5008058;28;20218;-74
2022/08/03 02:23:21;;;;;;;6.95;1.52;;;;;;;;;;5009659;28;20038;-74
2022/08/03 02:25:50;;;;;;;6.50;1.85;;;;;;;;;;5009471;28;20036;-74
2022/08/03 02:28:19;;;;;;;7.28;2.78;;;19.10;99.90;;;;;;5013465;28;20132;-74
2022/08/03 02:30:46;;;;;;;10.85;2.05;;;;;;;;;;5009127;28;20117;-74
2022/08/03 02:33:18;;;;;;;11.63;1.60;;;19.00;99.90;;;;;;5010763;28;20034;-74
2022/08/03 02:35:46;;;;;;;10.05;1.60;;;;;;;;;;5007349;28;20056;-74
2022/08/03 02:38:12;;;;;;;5.20;1.52;;;;;;;;;;5006384;28;20034;-72
2022/08/03 02:40:41;;;;;;;12.55;2.05;;;;;;;;;;5008433;28;20042;-72
2022/08/03 02:43:10;;;;;;;5.68;1.67;;;;;;;;;;5012321;28;20042;-73
2022/08/03 02:45:41;;;;;;;8.25;1.80;;;18.80;99.90;;;;;;5008471;28;20029;-72
2022/08/03 02:48:07;;;;;;;15.20;1.90;;;;;;;;;;5011336;28;20036;-73
2022/08/03 02:50:34;;;;;;;11.30;1.58;;;;;;;;;;5011946;28;20041;-73
2022/08/03 02:53:01;;;;;;;13.10;1.80;;;19.00;99.90;;;;;;5010124;28;20152;-73
2022/08/03 02:55:28;;;;;;;6.00;1.35;;;;;;;;;;5000692;28;20034;-73
2022/08/03 02:57:55;;;;;;;8.30;1.85;;;;;;;;;;5003823;28;20030;-74
2022/08/03 03:00:21;;;;;;;9.57;1.73;;;;;;;;;;5011106;28;20028;-73
2022/08/03 03:02:48;;;;;;;9.27;1.77;;;;;;;;;;4998156;28;20058;-73
2022/08/03 03:05:14;;;;;;;9.90;1.70;;;;;;;;;;5013095;28;20034;-73
2022/08/03 03:07:42;;;;;;;12.80;2.28;;;18.90;99.90;;;;;;5011951;28;20085;-74
2022/08/03 03:10:09;;;;;;;7.75;1.85;;;;;;;;;;5005053;28;20072;-74
2022/08/03 03:12:37;;;;;;;12.88;1.83;;;18.80;99.90;;;;;;5011122;28;20105;-73
2022/08/03 03:15:05;;;;;;;12.43;2.10;;;18.80;99.90;;;;;;5010033;28;20038;-73
2022/08/03 03:17:32;;;;;;;11.95;1.83;;;18.70;99.90;;;;;;5006987;28;20474;-73
2022/08/03 03:19:59;;;;;;;5.90;1.60;;;18.70;99.90;;;;;;5007669;28;20030;-72
2022/08/03 03:22:26;;;;;;;10.77;2.05;;;;;;;;;;5007108;28;20274;-72
2022/08/03 03:24:53;;;;;;;7.05;2.05;;;19.10;99.90;;;;;;4993995;28;20022;-73
2022/08/03 03:27:20;;;;;;;10.68;2.22;;;;;;;;;;5003803;28;20084;-73
2022/08/03 03:29:46;;;;;;;15.07;1.90;;;;;;;;;;5006688;28;20049;-74
2022/08/03 03:32:12;;;;;;;13.70;2.33;;;;;;;;;;5003668;28;20454;-74
2022/08/03 03:34:38;;;;;;;14.43;1.73;;;;;;;;;;5012063;28;20394;-73
2022/08/03 03:37:05;;;;;;;18.17;1.90;;;;;;;;;;5009119;28;20171;-74
2022/08/03 03:39:31;;;;;;;13.10;1.92;;;;;;;;;;5008688;28;20042;-74
2022/08/03 03:41:57;;;;;;;7.13;2.28;;;;;;;;;;5010684;28;20030;-73
2022/08/03 03:44:32;;;;;;;17.45;5.97;;;;;;;;;;5000406;28;20034;-72
2022/08/03 03:46:58;;;;;;;12.23;2.70;;;;;;;;;;5001765;28;20073;-72
2022/08/03 03:49:24;;;;;;;15.20;3.33;;;;;;;;;;5016601;28;20026;-72
2022/08/03 03:51:54;;;;;;;5.93;2.10;;;;;;;;;;5032066;28;20083;-73
2022/08/03 03:54:20;;;;;;;6.28;1.92;;;;;;;;;;5006193;28;20042;-73
2022/08/03 03:56:46;;;;;;;9.30;2.30;;;;;;;;;;5014032;28;20030;-74
2022/08/03 03:59:12;;;;;;;5.82;2.28;;;;;;;;;;5009606;28;20034;-75
2022/08/03 04:01:38;;;;;;;13.90;2.40;;;;;;;;;;5000999;28;20034;-75
2022/08/03 04:12:26;;;;;;;14.73;3.20;;;;;;;;;;4989860;28;20414;-74
2022/08/03 04:14:55;;;;;;;12.60;2.20;;;18.30;99.90;;;;;;5000394;28;20033;-75
2022/08/03 04:17:22;;;;;;;10.20;2.53;;;18.50;99.90;;;;;;4996445;28;20032;-74
2022/08/03 04:19:50;;;;;;;9.88;2.95;;;;;;;;;;5006164;28;20044;-74
2022/08/03 04:22:18;;;;;;;16.23;8.90;;;;;;;;;;5001023;28;20040;-75
2022/08/03 04:24:50;;;;;;;119.45;68.40;;;18.50;99.90;;;;;;5007940;28;20034;-72
2022/08/03 04:27:24;;;;;;;9.73;3.25;;;18.40;99.90;;;;;;4998662;28;20386;-73
2022/08/03 04:29:53;;;;;;;16.73;3.00;;;18.60;99.90;;;;;;5002118;28;20029;-74
2022/08/03 04:32:22;;;;;;;9.55;2.53;;;18.60;99.90;;;;;;5008216;28;20486;-73
2022/08/03 04:34:48;;;;;;;11.60;2.55;;;;;;;;;;5007451;28;20038;-74
2022/08/03 04:37:22;;;;;;;10.05;2.63;;;18.70;99.90;;;;;;5011048;28;20041;-73
2022/08/03 04:39:48;;;;;;;12.70;2.67;;;;;;;;;;5000517;28;20486;-73
2022/08/03 04:42:15;;;;;;;11.38;2.33;;;;;;;;;;5006191;28;20104;-74
2022/08/03 04:44:42;;;;;;;14.63;3.17;;;;;;;;;;5006514;28;20030;-74
2022/08/03 04:47:08;;;;;;;9.88;2.55;;;;;;;;;;5011487;28;20033;-74
2022/08/03 04:49:36;;;;;;;18.52;2.80;;;;;;;;;;5008588;28;20430;-74
2022/08/03 04:52:03;;;;;;;9.13;2.10;;;;;;;;;;5008281;28;20053;-73
2022/08/03 04:54:30;;;;;;;12.68;5.63;;;;;;;;;;5010003;28;20469;-73
2022/08/03 04:56:56;;;;;;;11.00;3.38;;;;;;;;;;5008561;28;20059;-74
2022/08/03 04:59:22;;;;;;;13.25;2.78;;;;;;;;;;5006376;28;20394;-73
2022/08/03 05:01:48;;;;;;;8.63;2.88;;;;;;;;;;5009303;28;20065;-75
2022/08/03 05:04:14;;;;;;;17.02;2.90;;;;;;;;;;5008663;28;20057;-73
2022/08/03 05:06:40;;;;;;;11.30;3.42;;;;;;;;;;5006219;28;20132;-74
2022/08/03 05:09:06;;;;;;;12.82;3.10;;;;;;;;;;5008290;28;20374;-74
2022/08/03 05:11:32;;;;;;;12.60;4.78;;;;;;;;;;5010998;28;20416;-74
2022/08/03 05:13:58;;;;;;;8.88;2.25;;;;;;;;;;5008859;28;20069;-74
2022/08/03 05:16:24;;;;;;;25.40;3.55;;;;;;;;;;4999268;28;20447;-74
2022/08/03 05:18:50;;;;;;;12.30;2.60;;;;;;;;;;5007749;28;20044;-74
2022/08/03 05:21:16;;;;;;;14.65;2.50;;;;;;;;;;5009807;28;20109;-74
2022/08/03 05:23:43;;;;;;;13.93;2.15;;;18.60;99.90;;;;;;5008995;28;20534;-74
2022/08/03 05:26:10;;;;;;;9.25;2.40;;;;;;;;;;5008197;28;20030;-74
2022/08/03 05:28:37;;;;;;;13.13;3.47;;;;;;;;;;5002795;28;20038;-74
2022/08/03 05:31:03;;;;;;;15.35;2.65;;;;;;;;;;5010395;28;20508;-74
2022/08/03 05:33:29;;;;;;;9.65;2.40;;;18.80;99.90;;;;;;5007781;28;20517;-73
2022/08/03 05:35:55;;;;;;;16.48;2.60;;;;;;;;;;5009532;28;20045;-74
2022/08/03 05:38:21;;;;;;;10.48;3.08;;;;;;;;;;5005679;28;20030;-74
2022/08/03 05:40:46;;;;;;;11.65;3.17;;;19.10;99.90;;;;;;5008688;28;20490;-74
2022/08/03 05:43:12;;;;;;;14.70;2.50;;;;;;;;;;5010180;28;20068;-74
2022/08/03 05:45:38;;;;;;;14.68;3.08;;;;;;;;;;5012209;28;20109;-74
2022/08/03 05:48:05;;;;;;;12.68;2.90;;;;;;;;;;5009039;28;20367;-75
2022/08/03 05:50:31;;;;;;;12.23;4.18;;;;;;;;;;5012404;28;20026;-75
2022/08/03 05:52:57;;;;;;;15.55;3.13;;;;;;;;;;5004057;28;20026;-75
2022/08/03 05:55:24;;;;;;;17.90;3.00;;;;;;;;;;5013225;28;20045;-74
2022/08/03 05:57:50;;;;;;;11.13;2.65;;;;;;;;;;4999285;28;20522;-74
2022/08/03 06:00:16;;;;;;;10.88;2.85;;;;;;;;;;5010810;28;20129;-74
2022/08/03 06:02:41;;;;;;;8.90;2.95;;;19.40;99.90;;;;;;5010598;28;20056;-75
2022/08/03 06:05:08;;;;;;;11.35;2.95;;;;;;;;;;5017249;28;20112;-75
2022/08/03 06:07:34;;;;;;;8.65;2.50;;;;;;;;;;5012356;28;20132;-75
2022/08/03 06:10:03;;;;;;;14.32;3.53;;;;;;;;;;5008994;28;20041;-74
2022/08/03 06:12:29;;;;;;;16.50;4.53;;;;;;;;;;5005737;28;20033;-74
2022/08/03 06:14:56;;;;;;;47.33;6.03;;;;;;;;;;5019264;28;20045;-74
2022/08/03 06:17:22;;;;;;;18.85;4.65;;;;;;;;;;5009719;28;20033;-74
2022/08/03 06:19:47;;;;;;;14.30;2.38;;;;;;;;;;5007503;28;20092;-74
2022/08/03 06:22:13;;;;;;;8.32;2.22;;;;;;;;;;5011317;28;20061;-74
2022/08/03 06:24:40;;;;;;;11.93;2.42;;;;;;;;;;5011277;28;20038;-74
2022/08/03 06:27:05;;;;;;;16.98;2.88;;;19.90;99.90;;;;;;5012090;28;20033;-74
2022/08/03 06:29:31;;;;;;;11.63;2.75;;;;;;;;;;5013642;28;20425;-74
2022/08/03 06:31:57;;;;;;;10.48;3.78;;;;;;;;;;4995007;28;20042;-74
2022/08/03 06:34:24;;;;;;;13.48;2.72;;;;;;;;;;5005613;28;20033;-74
2022/08/03 06:36:50;;;;;;;13.75;3.67;;;;;;;;;;5011914;28;20516;-74
2022/08/03 06:39:17;;;;;;;183.63;21.70;;;;;;;;;;5012725;28;20060;-74
2022/08/03 06:41:43;;;;;;;17.05;2.95;;;;;;;;;;5002772;28;20094;-74
2022/08/03 06:44:09;;;;;;;11.82;3.15;;;;;;;;;;4998339;28;20037;-75
2022/08/03 06:46:35;;;;;;;14.20;3.50;;;;;;;;;;4997932;28;20022;-77
2022/08/03 06:49:01;;;;;;;13.90;3.13;;;;;;;;;;5004908;28;20053;-78
2022/08/03 06:51:27;;;;;;;17.45;3.45;;;;;;;;;;5014783;28;20121;-76
2022/08/03 06:53:53;;;;;;;20.60;4.95;;;;;;;;;;5011266;28;20052;-76
2022/08/03 06:56:19;;;;;;;13.18;3.03;;;;;;;;;;5008159;28;20045;-76
2022/08/03 06:58:46;;;;;;;12.88;3.13;;;;;;;;;;5013106;28;20044;-74
2022/08/03 07:01:12;;;;;;;31.50;14.80;;;21.30;99.90;;;;;;5003099;28;20436;-76
2022/08/03 07:03:39;;;;;;;23.25;5.63;;;;;;;;;;5002394;28;20045;-76
2022/08/03 07:06:05;;;;;;;12.32;3.85;;;;;;;;;;5010689;28;20037;-76
2022/08/03 07:08:31;;;;;;;16.55;3.83;;;;;;;;;;5011989;28;20022;-74
2022/08/03 07:10:59;;;;;;;18.58;4.30;;;;;;;;;;5004603;28;20038;-81
2022/08/03 07:13:25;;;;;;;13.57;3.88;;;;;;;;;;5003911;28;20030;-76
2022/08/03 07:15:51;;;;;;;11.88;3.92;;;;;;;;;;4997720;28;20034;-75
2022/08/03 07:18:17;;;;;;;30.35;15.27;;;;;;;;;;5009079;28;20034;-76
2022/08/03 07:20:42;;;;;;;27.08;10.15;;;22.20;99.90;;;;;;5007267;28;20026;-74
2022/08/03 07:23:08;;;;;;;18.77;5.15;;;;;;;;;;5004336;28;20042;-73
2022/08/03 07:25:35;;;;;;;15.27;4.03;;;;;;;;;;5005896;28;20022;-76
2022/08/03 07:28:01;;;;;;;15.27;4.90;;;;;;;;;;5001679;28;20022;-75
2022/08/03 07:30:27;;;;;;;20.38;4.97;;;;;;;;;;5011932;28;20023;-83
2022/08/03 07:32:53;;;;;;;11.73;4.00;;;;;;;;;;4997382;28;20045;-76
2022/08/03 07:35:19;;;;;;;13.05;3.60;;;;;;;;;;5004802;28;20048;-76
2022/08/03 07:37:45;;;;;;;19.02;4.65;;;;;;;;;;5012952;28;20037;-75
2022/08/03 07:40:11;;;;;;;17.30;4.82;;;24.60;99.90;;;;;;5007995;28;20038;-76
2022/08/03 07:42:37;;;;;;;21.77;4.57;;;;;;;;;;5010205;28;20038;-76
2022/08/03 07:45:03;;;;;;;14.18;4.65;;;;;;;;;;5009051;28;20088;-78
2022/08/03 07:47:30;;;;;;;12.63;4.25;;;;;;;;;;5006753;28;20506;-80
2022/08/03 07:49:56;;;;;;;16.50;3.67;;;;;;;;;;5008943;28;20030;-78
2022/08/03 07:55:07;;;;;;;15.88;3.90;;;;;;;;;;5008462;28;20045;-75
2022/08/03 07:57:33;;;;;;;15.65;3.75;;;;;;;;;;5001447;28;20030;-76
2022/08/03 07:59:59;;;;;;;17.05;3.75;;;25.90;99.90;;;;;;5005993;28;20050;-76
2022/08/03 08:02:25;;;;;;;15.55;4.03;;;;;;;;;;5008073;28;20489;-77
2022/08/03 08:04:51;;;;;;;15.25;5.15;;;;;;;;;;5003443;28;20054;-75
2022/08/03 08:07:17;;;;;;;12.93;3.92;;;;;;;;;;5006657;28;20037;-74
2022/08/03 08:09:43;;;;;;;13.93;3.90;;;;;;;;;;5008689;28;20144;-75
2022/08/03 08:12:11;;;;;;;11.40;4.18;;;;;;;;;;5003477;28;20128;-76
2022/08/03 08:14:37;;;;;;;17.65;4.18;;;26.20;99.90;;;;;;5012561;28;20033;-74
2022/08/03 08:17:04;;;;;;;11.98;4.18;;;;;;;;;;5008591;28;20109;-75
2022/08/03 08:19:30;;;;;;;14.75;4.00;;;27.00;99.90;;;;;;5004233;28;20462;-75
2022/08/03 08:21:56;;;;;;;18.67;8.88;;;27.30;99.90;;;;;;5004141;28;20072;-77
2022/08/03 08:24:22;;;;;;;19.00;7.35;;;;;;;;;;5010680;28;20026;-76
2022/08/03 08:26:48;;;;;;;12.82;4.50;;;;;;;;;;5007029;28;20507;-72
2022/08/03 08:29:14;;;;;;;18.35;5.05;;;;;;;;;;5007241;28;20390;-74
2022/08/03 08:31:39;;;;;;;16.73;4.25;;;27.70;99.90;;;;;;5005460;28;20439;-73
2022/08/03 08:34:06;;;;;;;18.60;4.30;;;;;;;;;;5001205;28;20030;-74
2022/08/03 08:36:35;;;;;;;15.75;4.53;;;28.80;99.90;;;;;;5001009;28;20157;-73
2022/08/03 08:39:01;;;;;;;15.70;4.88;;;;;;;;;;5004045;28;20108;-73
2022/08/03 08:41:27;;;;;;;19.75;5.15;;;;;;;;;;5007178;28;20030;-72
2022/08/03 08:43:53;;;;;;;11.35;4.60;;;29.00;99.90;;;;;;5007777;28;20030;-73
2022/08/03 08:46:20;;;;;;;13.55;5.20;;;28.90;99.90;;;;;;5011312;28;20532;-73
2022/08/03 08:48:48;;;;;;;18.23;5.93;;;28.40;99.90;;;;;;5008880;28;20030;-73
2022/08/03 08:51:15;;;;;;;14.93;4.68;;;;;;;;;;5007709;28;20132;-73
2022/08/03 08:53:43;;;;;;;17.92;4.97;;;;;;;;;;5004984;28;20150;-74
2022/08/03 08:56:14;;;;;;;14.90;4.88;;;;;;;;;;4997339;28;20113;-73
2022/08/03 08:58:51;;;;;;;20.67;7.05;;;29.60;99.90;;;;;;5005881;28;20117;-73
2022/08/03 09:01:20;;;;;;;16.55;5.05;;;29.50;99.90;;;;;;5006766;28;20030;-73
2022/08/03 09:03:47;;;;;;;9.70;4.38;;;;;;;;;;5002185;28;20057;-74
2022/08/03 09:06:13;;;;;;;15.55;5.00;;;;;;;;;;5003719;28;20057;-76
2022/08/03 09:08:40;;;;;;;13.52;5.22;;;;;;;;;;5010529;28;20057;-74
2022/08/03 09:11:06;;;;;;;15.27;5.03;;;;;;;;;;5002299;28;20048;-74
2022/08/03 09:13:33;;;;;;;13.48;4.78;;;;;;;;;;5003946;28;20545;-75
2022/08/03 09:16:18;;;;;;;17.98;3.97;;;;;;;;;;4993592;28;20359;-74
2022/08/03 09:18:45;;;;;;;11.50;4.22;;;;;;;;;;4996928;28;20328;-74
2022/08/03 09:21:25;;;;;;;13.38;4.47;;;29.80;99.90;;;;;;5008476;28;20057;-76
2022/08/03 09:23:55;;;;;;;15.02;4.57;;;;;;;;;;5014825;28;20030;-74
2022/08/03 09:26:21;;;;;;;14.60;4.47;;;;;;;;;;5008829;28;20521;-80
2022/08/03 09:29:09;;;;;;;16.58;4.35;;;30.90;99.20;;;;;;5002660;28;20437;-77
2022/08/03 09:31:35;;;;;;;14.35;3.83;;;;;;;;;;5000478;28;20050;-80
2022/08/03 09:34:03;;;;;;;12.63;4.43;;;;;;;;;;4999123;28;20041;-80
2022/08/03 09:36:45;;;;;;;14.90;4.40;;;;;;;;;;5005015;28;20041;-82
2022/08/03 09:39:11;;;;;;;;;;;;;;;;;;5005253;28;20038;-78
2022/08/03 09:41:38;;;;;;;12.80;5.15;;;;;;;;;;5003381;28;19920;-77
2022/08/03 09:44:04;;;;;;;16.92;5.03;;;;;;;;;;5007662;28;20069;-78
2022/08/03 09:46:33;;;;;;;27.52;16.02;;;;;;;;;;5005066;28;20042;-74
2022/08/03 09:49:09;;;;;;;14.73;5.68;;;;;;;;;;5002706;28;20426;-74
2022/08/03 09:51:35;;;;;;;16.60;5.18;;;;;;;;;;5006260;28;20034;-74
2022/08/03 09:54:03;;;;;;;16.45;5.35;;;31.10;99.90;;;;;;5009052;28;20420;-74
2022/08/03 09:56:58;;;;;;;16.90;6.95;;;;;;;;;;5012756;28;20048;-74
2022/08/03 09:59:29;;;;;;;24.38;6.05;;;31.30;97.10;;;;;;4989404;28;20574;-74
2022/08/03 10:01:56;;;;;;;18.13;5.97;;;31.40;99.90;;;;;;5011389;28;20119;-74
2022/08/03 10:04:22;;;;;;;17.00;5.35;;;;;;;;;;5008976;28;20152;-74
2022/08/03 10:07:03;;;;;;;16.90;5.50;;;;;;;;;;5010086;28;20474;-75
2022/08/03 10:09:29;;;;;;;18.98;5.95;;;;;;;;;;5006725;28;20111;-73
2022/08/03 10:11:55;;;;;;;16.77;5.80;;;;;;;;;;5008606;28;20117;-73
2022/08/03 10:14:22;;;;;;;19.30;5.75;;;;;;;;;;5002026;28;20034;-73
2022/08/03 10:16:48;;;;;;;18.63;5.55;;;31.30;94.10;;;;;;5009027;28;20525;-71
2022/08/03 10:19:15;;;;;;;17.67;5.50;;;31.20;93.80;;;;;;5009955;28;20339;-73
2022/08/03 10:22:04;;;;;;;17.30;5.05;;;;;;;;;;5003630;28;20042;-72
2022/08/03 10:24:34;;;;;;;22.80;5.90;;;31.60;93.40;;;;;;5004193;28;20072;-73
2022/08/03 10:27:07;;;;;;;16.02;5.78;;;;;;;;;;5013894;28;20057;-72
2022/08/03 10:29:37;;;;;;;15.75;4.50;;;31.50;93.70;;;;;;5004573;28;20030;-72
2022/08/03 10:32:04;;;;;;;12.73;5.20;;;;;;;;;;5023915;28;20025;-72
2022/08/03 10:34:34;;;;;;;20.73;5.55;;;;;;;;;;5007538;28;20038;-72
2022/08/03 10:37:01;;;;;;;18.17;4.60;;;;;;;;;;5011138;28;20493;-74
2022/08/03 10:39:28;;;;;;;21.42;5.97;;;32.00;92.60;;;;;;5004872;28;20025;-74
2022/08/03 10:41:57;;;;;;;18.55;5.07;;;31.80;91.70;;;;;;5005604;28;20079;-73
2022/08/03 10:44:25;;;;;;;25.52;6.25;;;31.80;92.60;;;;;;5007412;28;20037;-74
2022/08/03 10:46:52;;;;;;;18.48;5.57;;;;;;;;;;5006763;28;20030;-69
2022/08/03 10:49:20;;;;;;;18.58;5.65;;;;;;;;;;5004389;28;20042;-71
2022/08/03 10:51:47;;;;;;;17.23;4.93;;;31.60;94.80;;;;;;5005144;28;20630;-71
2022/08/03 10:57:33;;;;;;;18.48;5.97;;;31.50;90.90;;;;;;5007772;28;20042;-72
2022/08/03 10:57:44;;;;;;;24.25;5.47;;;;;;;;;;5009939;28;25280;-72
2022/08/03 11:00:11;;;;;;;24.50;5.38;;;;;;;;;;5006011;28;20068;-72
2022/08/03 11:02:55;;;;;;;22.90;5.45;;;;;;;;;;5014817;28;20046;-71
2022/08/03 11:05:25;;;;;;;20.98;4.80;;;;;;;;;;5011955;28;20033;-72
2022/08/03 11:08:18;;;;;;;17.50;4.20;;;31.40;93.30;;;;;;5011224;28;20412;-72
2022/08/03 11:10:44;;;;;;;18.58;5.03;;;;;;;;;;5012744;28;20092;-72
2022/08/03 11:13:14;;;;;;;21.33;4.28;;;;;;;;;;5009284;28;20034;-72
2022/08/03 11:15:41;;;;;;;19.25;5.93;;;;;;;;;;5010357;28;20034;-72
2022/08/03 11:18:09;;;;;;;24.13;6.00;;;;;;;;;;5011929;28;20053;-72
2022/08/03 11:20:50;;;;;;;23.15;5.15;;;;;;;;;;5010472;28;20367;-72
2022/08/03 11:23:16;;;;;;;20.63;5.15;;;;;;;;;;4995887;28;20042;-72
2022/08/03 11:26:07;;;;;;;22.08;3.83;;;31.40;92.80;;;;;;5012112;28;20030;-72
2022/08/03 11:28:33;;;;;;;16.02;3.80;;;;;;;;;;5009259;28;20113;-72
2022/08/03 11:31:22;;;;;;;19.35;3.92;;;31.40;94.30;;;;;;5001739;28;20906;-72
2022/08/03 11:34:07;;;;;;;21.52;3.25;;;31.00;94.90;;;;;;5004754;28;20042;-72
2022/08/03 11:36:52;;;;;;;17.40;4.47;;;;;;;;;;5012600;28;20548;-71
2022/08/03 11:39:18;;;;;;;15.25;4.05;;;;;;;;;;5011609;28;20386;-72
2022/08/03 11:41:44;;;;;;;15.85;4.28;;;;;;;;;;5008915;28;20042;-72
2022/08/03 11:44:39;;;;;;;16.77;4.78;;;31.20;93.90;;;;;;5011999;28;20026;-71
2022/08/03 11:47:08;;;;;;;27.83;5.78;;;;;;;;;;5026409;28;20471;-73
2022/08/03 11:49:37;;;;;;;15.60;4.90;;;;;;;;;;5018994;28;20470;-72
2022/08/03 11:52:03;;;;;;;19.83;4.60;;;31.00;99.40;;;;;;5006138;28;20038;-73
2022/08/03 11:54:29;;;;;;;18.02;5.38;;;;;;;;;;5001448;28;20030;-73
2022/08/03 11:56:56;;;;;;;17.95;4.30;;;;;;;;;;5004435;28;20056;-72
2022/08/03 11:59:34;;;;;;;17.75;4.07;;;30.70;95.00;;;;;;5009522;28;20029;-73
2022/08/03 12:02:10;;;;;;;20.27;4.03;;;;;;;;;;5010227;28;20058;-73
2022/08/03 12:05:00;;;;;;;17.52;3.65;;;;;;;;;;5007285;28;20062;-72
2022/08/03 12:07:27;;;;;;;16.63;4.20;;;;;;;;;;5008551;28;20489;-72
2022/08/03 12:10:10;;;;;;;17.75;3.97;;;31.10;93.70;;;;;;5013225;28;20529;-73
2022/08/03 12:12:37;;;;;;;21.08;4.65;;;31.00;98.80;;;;;;5011571;28;20076;-72
2022/08/03 12:15:03;;;;;;;18.45;3.38;;;;;;;;;;5009600;28;20056;-73
2022/08/03 12:17:37;;;;;;;23.80;4.68;;;31.10;93.20;;;;;;5012654;28;20036;-72
2022/08/03 12:20:04;;;;;;;22.92;4.35;;;;;;;;;;5012060;28;20041;-72
2022/08/03 12:22:34;;;;;;;14.80;4.28;;;;;;;;;;5009634;28;20033;-71
2022/08/03 12:25:00;;;;;;;20.92;4.00;;;;;;;;;;5002858;28;20034;-72
2022/08/03 12:27:28;;;;;;;18.17;3.67;;;;;;;;;;5010522;28;20115;-72
2022/08/03 12:29:56;;;;;;;22.65;3.50;;;;;;;;;;5016606;28;20034;-71
2022/08/03 12:32:22;;;;;;;16.63;4.32;;;;;;;;;;4999710;28;20039;-71
2022/08/03 12:34:48;;;;;;;34.60;18.48;;;;;;;;;;4991390;28;20089;-71
2022/08/03 12:37:18;;;;;;;14.55;4.15;;;;;;;;;;5005227;28;20033;-71
2022/08/03 12:39:49;;;;;;;15.48;4.03;;;;;;;;;;5008159;28;20061;-71
2022/08/03 12:42:15;;;;;;;16.83;4.07;;;30.90;95.00;;;;;;5005937;28;20061;-71
2022/08/03 12:44:41;;;;;;;23.85;3.85;;;;;;;;;;5009711;28;20593;-71
2022/08/03 12:47:09;;;;;;;15.75;3.38;;;30.70;98.90;;;;;;4999539;28;20117;-71
2022/08/03 12:50:07;;;;;;;12.20;3.15;;;;;;;;;;5005241;28;20072;-73
2022/08/03 12:52:42;;;;;;;18.38;4.03;;;30.80;93.70;;;;;;4980654;28;20513;-72
2022/08/03 12:55:19;;;;;;;17.63;3.80;;;30.70;92.70;;;;;;5011696;28;20035;-72
2022/08/03 12:57:45;;;;;;;19.00;4.32;;;;;;;;;;5009801;28;20052;-72
2022/08/03 13:00:12;;;;;;;18.42;4.00;;;;;;;;;;5006739;28;20430;-71
2022/08/03 13:02:40;;;;;;;18.08;4.07;;;;;;;;;;5003435;28;20432;-71
2022/08/03 13:05:15;;;;;;;20.05;4.28;;;30.40;91.50;;;;;;5012744;28;20084;-71
2022/08/03 13:07:45;;;;;;;16.10;3.50;;;;;;;;;;5010000;28;20038;-70
2022/08/03 13:10:11;;;;;;;20.50;3.67;;;30.70;92.00;;;;;;5006601;28;20042;-72
2022/08/03 13:12:49;;;;;;;16.13;4.13;;;30.80;93.20;;;;;;5012398;28;20038;-72
2022/08/03 13:15:15;;;;;;;17.55;4.45;;;;;;;;;;5003402;28;20031;-71
2022/08/03 13:17:41;;;;;;;22.15;5.82;;;;;;;;;;5011676;28;20033;-71
2022/08/03 13:20:08;;;;;;;19.65;4.40;;;;;;;;;;5011608;28;20100;-71
2022/08/03 13:22:34;;;;;;;14.63;3.42;;;;;;;;;;5011024;28;20065;-71
2022/08/03 13:25:01;;;;;;;19.88;3.90;;;;;;;;;;5013956;28;20089;-71
2022/08/03 13:27:28;;;;;;;17.58;2.90;;;;;;;;;;5007931;28;20386;-71
2022/08/03 13:29:55;;;;;;;15.90;3.75;;;;;;;;;;5008959;28;20034;-72
2022/08/03 13:32:21;;;;;;;19.80;3.83;;;;;;;;;;5005286;28;20133;-71
2022/08/03 13:34:47;;;;;;;20.33;3.65;;;;;;;;;;5012832;28;20072;-70
2022/08/03 13:37:13;;;;;;;14.63;3.47;;;30.90;97.10;;;;;;5008178;28;20057;-70
2022/08/03 13:39:40;;;;;;;17.25;3.85;;;;;;;;;;5013020;28;20549;-70
2022/08/03 13:42:06;;;;;;;14.93;4.25;;;;;;;;;;5009187;28;20064;-70
2022/08/03 13:44:32;;;;;;;14.95;3.08;;;;;;;;;;5006334;28;20028;-71
2022/08/03 13:46:59;;;;;;;13.38;4.22;;;;;;;;;;5002315;28;20072;-71
2022/08/03 13:49:26;;;;;;;23.15;4.00;;;;;;;;;;5007787;28;20050;-71
2022/08/03 13:51:52;;;;;;;18.50;3.55;;;;;;;;;;5010589;28;20037;-71
2022/08/03 13:54:18;;;;;;;15.63;4.15;;;;;;;;;;5011379;28;20132;-71
2022/08/03 13:56:51;;;;;;;16.33;3.72;;;30.90;91.30;;;;;;5011926;28;20480;-71
2022/08/03 13:59:17;;;;;;;20.35;3.70;;;31.00;97.30;;;;;;5004355;28;20452;-71
2022/08/03 14:01:45;;;;;;;19.48;4.38;;;30.80;95.20;;;;;;5009800;28;20253;-72
2022/08/03 14:04:11;;;;;;;17.35;2.97;;;;;;;;;;5000175;28;20061;-72
2022/08/03 14:06:37;;;;;;;18.75;3.63;;;30.90;93.20;;;;;;5012490;28;20064;-73
2022/08/03 14:09:03;;;;;;;13.30;3.40;;;;;;;;;;5002827;28;20037;-72
2022/08/03 14:11:30;;;;;;;18.00;3.08;;;;;;;;;;5003994;28;20040;-72
2022/08/03 14:13:56;;;;;;;25.20;4.32;;;30.80;92.50;;;;;;5009016;28;20065;-72
2022/08/03 14:16:22;;;;;;;17.63;3.20;;;;;;;;;;5011168;28;20111;-72
2022/08/03 14:18:49;;;;;;;17.38;3.40;;;;;;;;;;5011162;28;20034;-71
2022/08/03 14:21:15;;;;;;;18.42;3.10;;;;;;;;;;5008395;28;20149;-72